Time;durP1;ratioP1;P1;durP2;ratioP2;P2;SDS_P1;SDS_P2;PMS_P1;PMS_P2;Temp;Humidity;BMP_temperature;BMP_pressure;BME280_temperature;BME280_humidity;BME280_pressure;Samples;Min_cycle;Max_cycle;Signal;HPM_P1;HPM_P2
2023/03/29 00:01:41;;;;;;;5.68;2.00;;;;;;;8.31;62.03;100993.78;4215385;28;20043;-63
2023/03/29 00:03:46;;;;;;;3.13;1.73;;;;;;;8.30;62.15;101001.53;4196959;28;20048;-62
2023/03/29 00:05:49;;;;;;;5.63;1.92;;;;;;;8.29;62.06;101005.81;4197064;28;20048;-61
2023/03/29 00:07:52;;;;;;;2.75;1.73;;;;;;;8.30;61.88;100986.84;4215044;28;20489;-63
2023/03/29 00:09:56;;;;;;;3.88;1.85;;;;;;;8.32;61.72;100987.78;4215099;28;20051;-63
2023/03/29 00:11:59;;;;;;;5.75;1.98;;;;;;;8.30;62.05;100973.91;4215011;28;20048;-63
2023/03/29 00:14:03;;;;;;;4.95;1.88;;;;;;;8.33;61.61;100988.66;4196939;28;20098;-61
2023/03/29 00:16:06;;;;;;;3.90;1.90;;;;;;;8.33;62.08;100980.91;4196895;28;20062;-61
2023/03/29 00:18:10;;;;;;;6.40;1.80;;;;;;;8.31;61.75;100983.44;4197030;28;20041;-61
2023/03/29 00:20:13;;;;;;;5.32;1.65;;;;;;;8.30;61.61;100989.44;4214869;28;20036;-61
2023/03/29 00:22:16;;;;;;;5.82;1.90;;;;;;;8.29;61.56;100972.13;4214836;28;20044;-61
2023/03/29 00:24:19;;;;;;;4.63;1.92;;;;;;;8.31;61.57;100973.06;4214905;28;20040;-62
2023/03/29 00:26:23;;;;;;;4.35;2.10;;;;;;;8.30;61.54;100979.06;4180173;28;20045;-62
2023/03/29 00:28:26;;;;;;;4.88;1.67;;;;;;;8.31;61.70;100978.25;4196865;28;20119;-61
2023/03/29 00:30:29;;;;;;;3.72;1.83;;;;;;;8.33;61.78;100976.56;4196780;28;20033;-61
2023/03/29 00:32:33;;;;;;;3.10;1.77;;;;;;;8.34;62.19;100973.16;4196464;28;20078;-61
2023/03/29 00:34:37;;;;;;;3.70;2.03;;;;;;;8.34;62.79;100980.06;4213564;28;20035;-61
2023/03/29 00:36:40;;;;;;;3.00;1.88;;;;;;;8.34;63.19;100975.75;4214401;28;20036;-61
2023/03/29 00:38:44;;;;;;;4.53;1.70;;;;;;;8.35;63.07;100972.34;4214565;28;20051;-61
2023/03/29 00:40:47;;;;;;;3.83;2.00;;;;;;;8.36;62.60;100962.84;4196841;28;20059;-61
2023/03/29 00:42:50;;;;;;;7.20;2.33;;;;;;;8.34;62.76;100960.22;4196327;28;20131;-61
2023/03/29 00:45:02;;;;;;;3.65;1.88;;;;;;;8.34;62.57;100957.63;4214545;28;20040;-61
2023/03/29 00:47:05;;;;;;;4.30;1.90;;;;;;;8.32;63.18;100955.81;4196533;28;20040;-61
2023/03/29 00:49:12;;;;;;;3.80;1.95;;;;;;;8.34;62.65;100960.22;4196497;28;20058;-62
2023/03/29 00:51:20;;;;;;;4.30;2.08;;;;;;;8.33;63.20;100953.25;4196644;28;20028;-62
2023/03/29 00:53:31;;;;;;;6.68;2.30;;;;;;;8.31;63.19;100956.63;4196504;28;20109;-62
2023/03/29 00:55:37;;;;;;;2.83;1.77;;;;;;;8.27;62.76;100947.03;4196362;28;20139;-61
2023/03/29 00:57:42;;;;;;;5.82;2.35;;;;;;;8.30;63.10;100960.06;4196467;28;20514;-62
2023/03/29 00:59:47;;;;;;;;;;;;;;;8.22;63.38;100959.84;4197046;28;20083;-62
2023/03/29 01:01:53;;;;;;;4.43;2.05;;;;;;;8.19;62.99;100963.22;4179687;28;20469;-62
2023/03/29 01:04:02;;;;;;;3.85;2.40;;;;;;;8.21;62.70;100966.72;4214578;28;20051;-62
2023/03/29 01:06:08;;;;;;;6.35;2.25;;;;;;;8.23;62.92;100966.75;4179633;28;20068;-62
2023/03/29 01:08:17;;;;;;;4.65;1.85;;;;;;;8.24;62.77;100957.31;4214279;28;20569;-62
2023/03/29 01:10:26;;;;;;;4.22;2.13;;;;;;;8.25;62.53;100956.44;4196281;28;20131;-62
2023/03/29 01:12:34;;;;;;;7.93;2.53;;;;;;;8.22;62.55;100957.25;4213922;28;20036;-62
2023/03/29 01:14:42;;;;;;;5.15;2.45;;;;;;;8.20;62.45;100946.81;4179542;28;20059;-62
2023/03/29 01:16:46;;;;;;;7.28;2.28;;;;;;;8.20;62.55;100940.75;4196072;28;20040;-62
2023/03/29 01:18:51;;;;;;;4.25;2.15;;;;;;;8.23;62.35;100943.44;4196153;28;20090;-62
2023/03/29 01:21:14;;;;;;;7.40;2.72;;;;;;;8.22;62.42;100936.53;4196038;28;20524;-62
2023/03/29 01:23:32;;;;;;;9.05;2.72;;;;;;;8.19;62.36;100933.81;4195880;28;20037;-62
2023/03/29 01:25:42;;;;;;;6.20;2.38;;;;;;;8.19;62.42;100937.31;4196140;28;20044;-62
2023/03/29 01:27:53;;;;;;;5.45;2.40;;;;;;;8.24;61.40;100932.28;4213975;28;20350;-62
2023/03/29 01:30:02;;;;;;;4.97;2.03;;;;;;;8.24;61.47;100932.28;4179524;28;20076;-62
2023/03/29 01:32:11;;;;;;;7.18;2.40;;;;;;;8.25;61.29;100921.09;4195961;28;20041;-62
2023/03/29 01:34:21;;;;;;;5.78;2.33;;;;;;;8.23;61.20;100927.03;4195911;28;20044;-62
2023/03/29 01:36:27;;;;;;;4.72;2.20;;;;;;;8.16;61.02;100929.44;4195894;28;20041;-62
2023/03/29 01:38:34;;;;;;;4.50;2.33;;;;;;;8.14;60.92;100922.44;4195984;28;20107;-61
2023/03/29 01:40:37;;;;;;;4.15;2.08;;;;;;;8.13;60.89;100919.00;4195928;28;20127;-62
2023/03/29 01:42:46;;;;;;;8.00;2.65;;;;;;;8.15;60.65;100916.44;4213498;28;20064;-61
2023/03/29 01:44:59;;;;;;;6.50;2.45;;;;;;;8.13;60.73;100915.50;4195948;28;20113;-61
2023/03/29 01:47:11;;;;;;;5.80;2.53;;;;;;;8.07;61.10;100913.59;4179149;28;20502;-61
2023/03/29 01:49:22;;;;;;;7.18;2.15;;;;;;;8.08;61.04;100911.91;4195485;28;20036;-61
2023/03/29 01:51:30;;;;;;;5.35;2.28;;;;;;;8.08;60.74;100909.31;4195968;28;20045;-61
2023/03/29 01:53:38;;;;;;;6.10;2.35;;;;;;;8.08;61.24;100909.31;4213470;28;20036;-61
2023/03/29 01:55:47;;;;;;;5.88;2.22;;;;;;;8.09;61.42;100918.81;4195742;28;20495;-61
2023/03/29 01:57:52;;;;;;;4.07;2.15;;;;;;;8.10;61.41;100912.81;4196011;28;20124;-61
2023/03/29 01:59:58;;;;;;;5.00;2.50;;;;;;;8.07;61.30;100907.56;4195822;28;20032;-61
2023/03/29 02:02:04;;;;;;;5.13;2.10;;;;;;;8.08;61.04;100909.31;4195872;28;20041;-61
2023/03/29 02:04:12;;;;;;;6.85;2.50;;;;;;;8.14;60.55;100904.31;4213478;28;20089;-61
2023/03/29 02:06:19;;;;;;;3.83;2.35;;;;;;;8.08;61.19;100901.53;4195591;28;20072;-61
2023/03/29 02:08:22;;;;;;;6.55;2.60;;;;;;;8.05;61.00;100904.91;4195774;28;20047;-61
2023/03/29 02:10:26;;;;;;;5.13;2.13;;;;;;;8.11;61.05;100888.69;4195697;28;20429;-61
2023/03/29 02:12:29;;;;;;;7.53;2.42;;;;;;;8.08;61.11;100893.78;4195365;28;20056;-61
2023/03/29 02:14:32;;;;;;;4.38;1.90;;;;;;;8.04;61.22;100888.50;4195676;28;20036;-61
2023/03/29 02:16:37;;;;;;;5.65;2.03;;;;;;;8.07;60.95;100881.66;4195461;28;20060;-61
2023/03/29 02:18:41;;;;;;;;;;;;;;;7.93;61.16;100882.09;4213933;28;20048;-61
2023/03/29 02:20:47;;;;;;;4.47;1.92;;;;;;;7.93;61.67;100882.09;4195672;28;19924;-61
2023/03/29 02:22:57;;;;;;;3.65;2.20;;;;;;;8.02;61.63;100869.44;4195425;28;20533;-61
2023/03/29 02:25:03;;;;;;;6.43;2.05;;;;;;;8.05;61.33;100863.47;4178970;28;20438;-61
2023/03/29 02:27:06;;;;;;;5.70;2.13;;;;;;;8.10;61.88;100863.63;4195531;28;20099;-61
2023/03/29 02:29:10;;;;;;;3.00;1.88;;;;;;;8.11;61.72;100862.78;4178860;28;20048;-61
2023/03/29 02:31:20;;;;;;;5.35;2.10;;;;;;;8.11;61.73;100861.06;4195787;28;20058;-61
2023/03/29 02:33:30;;;;;;;4.13;2.35;;;;;;;8.14;62.14;100855.13;4195235;28;20063;-61
2023/03/29 02:35:37;;;;;;;5.60;1.90;;;;;;;8.09;62.06;100854.09;4195531;28;20096;-61
2023/03/29 02:37:44;;;;;;;4.55;2.20;;;;;;;8.10;62.33;100856.72;4213429;28;20109;-61
2023/03/29 02:39:48;;;;;;;5.03;2.30;;;;;;;8.13;61.57;100851.66;4195432;28;20039;-61
2023/03/29 02:41:53;;;;;;;4.65;2.25;;;;;;;8.10;61.69;100845.50;4179129;28;20068;-61
2023/03/29 02:44:00;;;;;;;5.38;2.45;;;;;;;8.09;61.61;100851.50;4178452;28;20430;-61
2023/03/29 02:46:05;;;;;;;6.70;2.55;;;;;;;8.06;61.49;100856.59;4195470;28;20080;-60
2023/03/29 02:48:10;;;;;;;;;;;;;;;7.92;61.43;100857.03;4195777;28;20044;-61
2023/03/29 02:50:15;;;;;;;5.03;2.13;;;;;;;7.91;61.78;100864.75;4178852;28;19927;-61
2023/03/29 02:52:23;;;;;;;5.45;2.50;;;;;;;8.00;61.88;100854.69;4195245;28;20433;-61
2023/03/29 02:54:30;;;;;;;6.38;2.55;;;;;;;8.04;61.84;100852.25;4195592;28;20050;-60
2023/03/29 02:56:42;;;;;;;7.82;2.58;;;;;;;8.10;61.97;100856.72;4195288;28;20040;-61
2023/03/29 02:58:45;;;;;;;5.70;2.25;;;;;;;8.10;62.07;100851.53;4195541;28;20051;-61
2023/03/29 03:00:50;;;;;;;3.55;2.20;;;;;;;8.11;62.42;100847.25;4180362;28;20060;-61
2023/03/29 03:02:54;;;;;;;7.88;2.33;;;;;;;8.12;62.48;100838.63;4215858;28;20056;-61
2023/03/29 03:04:58;;;;;;;4.93;2.20;;;;;;;8.13;62.57;100841.31;4181548;28;20041;-61
2023/03/29 03:07:04;;;;;;;6.22;2.78;;;;;;;8.12;62.32;100831.78;4181372;28;20092;-61
2023/03/29 03:09:09;;;;;;;4.55;2.15;;;;;;;8.13;62.91;100830.03;4198475;28;20058;-60
2023/03/29 03:11:15;;;;;;;5.95;2.78;;;;;;;8.16;62.76;100830.13;4181474;28;20068;-61
2023/03/29 03:13:18;;;;;;;4.57;2.25;;;;;;;8.17;62.19;100834.50;4197759;28;20123;-61
2023/03/29 03:15:21;;;;;;;7.28;2.47;;;;;;;8.20;62.18;100842.34;4198023;28;20508;-61
2023/03/29 03:17:24;;;;;;;6.95;2.13;;;;;;;8.12;61.89;100839.53;4197818;28;20048;-61
2023/03/29 03:19:27;;;;;;;4.03;2.00;;;;;;;8.10;61.78;100836.00;4197914;28;20469;-61
2023/03/29 03:21:30;;;;;;;2.92;2.00;;;;;;;8.14;61.88;100832.69;4197954;28;20040;-61
2023/03/29 03:23:36;;;;;;;3.72;2.10;;;;;;;8.15;61.39;100834.44;4180993;28;20041;-61
2023/03/29 03:25:38;;;;;;;3.55;1.88;;;;;;;8.15;61.95;100833.59;4197867;28;20127;-61
2023/03/29 03:27:41;;;;;;;4.68;1.88;;;;;;;8.11;61.40;100835.19;4198181;28;20123;-61
2023/03/29 03:29:46;;;;;;;2.67;1.92;;;;;;;8.08;61.96;100834.22;4198013;28;20037;-61
2023/03/29 03:32:07;;;;;;;4.97;2.28;;;;;;;8.03;61.22;100834.97;4215484;28;20406;-61
2023/03/29 03:34:25;;;;;;;5.00;2.20;;;;;;;8.04;61.69;100822.88;4215749;28;20113;-61
2023/03/29 03:36:33;;;;;;;4.45;1.83;;;;;;;8.10;61.69;100814.41;4215558;28;20047;-61
2023/03/29 03:38:38;;;;;;;5.75;2.15;;;;;;;8.07;62.02;100815.19;4197830;28;20510;-61
2023/03/29 03:40:41;;;;;;;3.28;1.88;;;;;;;8.02;62.21;100816.78;4181074;28;20490;-61
2023/03/29 03:42:44;;;;;;;5.55;1.90;;;;;;;7.98;62.33;100820.97;4197271;28;20056;-61
2023/03/29 03:44:47;;;;;;;5.00;2.20;;;;;;;7.90;61.95;100822.47;4214378;28;20064;-61
2023/03/29 03:47:09;;;;;;;2.40;1.75;;;;;;;7.79;61.82;100821.25;4214309;28;20059;-61
2023/03/29 03:49:13;;;;;;;5.80;2.47;;;;;;;7.83;61.48;100820.53;4180841;28;20044;-61
2023/03/29 03:51:17;;;;;;;6.68;2.20;;;;;;;7.90;61.71;100806.03;4197498;28;20045;-61
2023/03/29 03:53:25;;;;;;;5.80;2.70;;;;;;;7.93;62.13;100809.63;4197268;28;20158;-61
2023/03/29 03:55:49;;;;;;;4.18;1.88;;;;;;;7.91;62.31;100813.00;4215347;28;20043;-61
2023/03/29 03:57:57;;;;;;;5.30;2.35;;;;;;;7.80;63.24;100817.84;4197394;28;20407;-61
2023/03/29 03:59:59;;;;;;;5.28;1.90;;;;;;;7.77;62.77;100809.97;4197344;28;20064;-61
2023/03/29 04:02:14;;;;;;;5.00;2.53;;;;;;;7.80;62.49;100815.25;4212314;28;20040;-61
2023/03/29 04:04:19;;;;;;;5.90;2.80;;;;;;;7.78;63.30;100817.78;4191021;28;20418;-61
2023/03/29 04:06:41;;;;;;;5.05;2.25;;;;;;;7.65;63.07;100813.03;4213278;28;20044;-61
2023/03/29 04:09:14;;;;;;;5.28;2.80;;;;;;;7.72;62.92;100812.41;4144049;28;20073;-61
2023/03/29 04:11:24;;;;;;;4.60;2.53;;;;;;;7.67;62.98;100809.69;4179508;28;20083;-61
2023/03/29 04:13:28;;;;;;;4.63;2.20;;;;;;;7.68;63.61;100821.78;4196884;28;20393;-61
2023/03/29 04:15:55;;;;;;;4.53;2.70;;;;;;;7.68;63.71;100811.44;4214213;28;20058;-63
2023/03/29 04:18:01;;;;;;;6.15;2.38;;;;;;;7.72;63.45;100816.72;4195180;28;20599;-61
2023/03/29 04:20:10;;;;;;;3.95;1.98;;;;;;;7.72;62.86;100815.00;4192528;28;20044;-61
2023/03/29 04:22:15;;;;;;;5.65;2.50;;;;;;;7.70;62.83;100821.84;4203880;28;20048;-61
2023/03/29 04:24:18;;;;;;;7.20;2.03;;;;;;;7.69;63.25;100809.72;4207631;28;20039;-61
2023/03/29 04:26:40;;;;;;;6.10;2.33;;;;;;;7.69;63.06;100818.38;4195983;28;20036;-61
2023/03/29 04:28:50;;;;;;;5.05;2.13;;;;;;;7.67;63.45;100813.97;4192803;28;20064;-61
2023/03/29 04:31:05;;;;;;;3.92;2.20;;;;;;;7.68;63.54;100820.91;4208498;28;20493;-61
2023/03/29 04:33:20;;;;;;;5.22;2.38;;;;;;;7.69;63.79;100818.38;4170195;28;20106;-61
2023/03/29 04:35:30;;;;;;;7.88;2.10;;;;;;;7.74;63.15;100813.34;4206676;28;20115;-61
2023/03/29 04:37:33;;;;;;;4.68;2.08;;;;;;;7.72;63.26;100821.88;4169410;28;20561;-61
2023/03/29 04:39:37;;;;;;;4.97;2.33;;;;;;;7.69;63.71;100820.06;4187729;28;20411;-61
2023/03/29 04:41:42;;;;;;;4.82;1.90;;;;;;;7.69;63.87;100815.78;4189378;28;20051;-61
2023/03/29 04:43:54;;;;;;;4.45;2.28;;;;;;;7.65;64.11;100825.97;4193048;28;20041;-61
2023/03/29 04:46:02;;;;;;;4.57;2.15;;;;;;;7.63;63.80;100817.31;4195456;28;20620;-61
2023/03/29 04:48:25;;;;;;;3.95;2.13;;;;;;;7.60;63.82;100820.66;4204187;28;20054;-61
2023/03/29 04:50:28;;;;;;;3.65;2.10;;;;;;;7.65;63.70;100811.34;4218779;28;20512;-61
2023/03/29 04:52:32;;;;;;;6.30;2.45;;;;;;;7.66;63.91;100815.66;4178420;28;20453;-61
2023/03/29 04:54:37;;;;;;;3.75;2.05;;;;;;;7.71;63.26;100810.66;4213578;28;20034;-61
2023/03/29 04:56:51;;;;;;;7.03;2.50;;;;;;;7.66;63.63;100805.31;4172076;28;20051;-61
2023/03/29 04:59:23;;;;;;;4.20;2.15;;;;;;;7.60;63.66;100812.03;4188678;28;20634;-61
2023/03/29 05:01:26;;;;;;;3.63;2.20;;;;;;;7.61;63.95;100809.50;4186396;28;20066;-61
2023/03/29 05:03:33;;;;;;;5.20;2.10;;;;;;;7.63;64.42;100806.94;4187418;28;20560;-61
2023/03/29 05:05:44;;;;;;;4.03;2.17;;;;;;;7.61;64.42;100808.63;4194554;28;20555;-61
2023/03/29 05:07:47;;;;;;;4.70;2.00;;;;;;;7.61;63.87;100819.84;4204201;28;20119;-61
2023/03/29 05:09:54;;;;;;;5.32;2.30;;;;;;;7.60;64.18;100820.66;4193871;28;20529;-61
2023/03/29 05:11:58;;;;;;;2.40;1.88;;;;;;;7.62;64.02;100815.53;4172011;28;20144;-61
2023/03/29 05:14:06;;;;;;;4.07;2.38;;;;;;;7.67;64.13;100813.97;4185763;28;20041;-61
2023/03/29 05:16:31;;;;;;;5.65;2.58;;;;;;;7.73;64.04;100813.31;4179906;28;20041;-61
2023/03/29 05:18:35;;;;;;;5.22;2.25;;;;;;;7.62;63.83;100821.59;4159550;28;20056;-60
2023/03/29 05:20:39;;;;;;;6.38;2.45;;;;;;;7.71;63.87;100817.53;4177896;28;20123;-60
2023/03/29 05:22:42;;;;;;;4.90;2.45;;;;;;;7.77;63.82;100809.97;4161708;28;20041;-61
2023/03/29 05:24:50;;;;;;;3.70;2.20;;;;;;;7.74;63.94;100815.03;4162790;28;20068;-61
2023/03/29 05:26:54;;;;;;;5.95;2.20;;;;;;;7.66;63.84;100818.25;4179070;28;20131;-61
2023/03/29 05:28:59;;;;;;;4.05;2.40;;;;;;;7.69;63.56;100823.56;4175701;28;20041;-61
2023/03/29 05:31:04;;;;;;;3.60;2.75;;;;;;;7.65;63.76;100819.13;4139887;28;20137;-61
2023/03/29 05:33:11;;;;;;;3.60;2.08;;;;;;;7.63;64.02;100820.75;4177228;28;20045;-61
2023/03/29 05:35:14;;;;;;;8.27;2.60;;;;;;;7.62;63.89;100815.53;4178098;28;20391;-61
2023/03/29 05:37:19;;;;;;;6.47;2.40;;;;;;;7.47;63.92;100826.28;4161877;28;20041;-61
2023/03/29 05:39:27;;;;;;;3.17;2.00;;;;;;;7.47;64.12;100828.84;4177437;28;20116;-61
2023/03/29 05:41:30;;;;;;;6.25;2.42;;;;;;;7.46;64.05;100825.41;4176338;28;20112;-61
2023/03/29 05:43:52;;;;;;;4.13;2.40;;;;;;;7.50;64.07;100826.38;4156757;28;20053;-61
2023/03/29 05:46:00;;;;;;;4.32;2.30;;;;;;;7.52;64.12;100824.72;4157774;28;20068;-61
2023/03/29 05:48:06;;;;;;;6.47;2.40;;;;;;;7.54;64.21;100815.28;4157619;28;20042;-61
2023/03/29 05:50:10;;;;;;;5.85;2.70;;;;;;;7.57;64.10;100815.38;4168701;28;20129;-61
2023/03/29 05:52:14;;;;;;;4.47;2.50;;;;;;;7.60;63.95;100822.38;4152028;28;20095;-61
2023/03/29 05:54:16;;;;;;;5.38;2.38;;;;;;;7.56;64.03;100821.38;4176555;28;20503;-61
2023/03/29 05:56:19;;;;;;;7.53;2.70;;;;;;;7.47;64.41;100818.50;4156982;28;20127;-61
2023/03/29 05:58:25;;;;;;;3.33;2.25;;;;;;;7.51;64.74;100821.25;4169961;28;20037;-61
2023/03/29 06:00:30;;;;;;;;;;;;;;;7.44;64.66;100824.47;4159662;28;20041;-61
2023/03/29 06:02:48;;;;;;;5.60;2.50;;;;;;;7.49;65.08;100824.59;4159894;28;19928;-61
2023/03/29 06:04:52;;;;;;;5.10;2.75;;;;;;;7.51;64.71;100823.81;4155518;28;20431;-60
2023/03/29 06:07:00;;;;;;;4.28;2.67;;;;;;;7.58;64.88;100818.84;4153994;28;20124;-61
2023/03/29 06:09:05;;;;;;;4.40;2.60;;;;;;;7.65;65.00;100821.69;4176506;28;20494;-61
2023/03/29 06:11:13;;;;;;;5.35;2.60;;;;;;;7.69;64.83;100822.66;4172721;28;20120;-61
2023/03/29 06:13:36;;;;;;;3.92;2.25;;;;;;;7.66;64.70;100832.91;4167299;28;20285;-61
2023/03/29 06:15:39;;;;;;;4.75;2.28;;;;;;;7.65;64.38;100836.31;4172078;28;20041;-62
2023/03/29 06:17:45;;;;;;;5.88;2.42;;;;;;;7.66;64.80;100827.75;4168034;28;20053;-61
2023/03/29 06:19:51;;;;;;;5.15;2.70;;;;;;;7.75;65.12;100829.75;4152947;28;20069;-61
2023/03/29 06:21:57;;;;;;;4.47;2.40;;;;;;;7.80;64.80;100836.84;4175534;28;20395;-61
2023/03/29 06:24:03;;;;;;;5.63;2.47;;;;;;;7.86;65.10;100825.78;4153692;28;20129;-61
2023/03/29 06:26:12;;;;;;;3.75;2.40;;;;;;;7.88;64.51;100838.78;4170189;28;20041;-61
2023/03/29 06:28:16;;;;;;;7.22;2.63;;;;;;;7.96;65.15;100838.19;4153777;28;20421;-62
2023/03/29 06:30:20;;;;;;;4.32;2.22;;;;;;;8.00;64.92;100842.63;4166854;28;20065;-61
2023/03/29 06:32:27;;;;;;;9.52;2.78;;;;;;;8.04;64.74;100841.00;4161170;28;20033;-61
2023/03/29 06:34:43;;;;;;;4.38;2.22;;;;;;;8.06;64.85;100839.34;4171520;28;20059;-61
2023/03/29 06:37:08;;;;;;;5.25;2.50;;;;;;;8.12;64.92;100828.28;4172475;28;20042;-61
2023/03/29 06:39:10;;;;;;;4.75;2.58;;;;;;;8.17;64.95;100837.09;4180911;28;20072;-61
2023/03/29 06:41:29;;;;;;;4.53;2.65;;;;;;;8.20;64.14;100837.16;4153165;28;20136;-61
2023/03/29 06:43:41;;;;;;;4.20;2.30;;;;;;;8.21;63.90;100838.94;4154632;28;20088;-61
2023/03/29 06:45:49;;;;;;;6.78;2.88;;;;;;;8.27;63.99;100836.53;4182466;28;20029;-61
2023/03/29 06:48:00;;;;;;;5.32;2.30;;;;;;;8.31;63.60;100838.38;4167712;28;20079;-62
2023/03/29 06:50:05;;;;;;;6.28;2.38;;;;;;;8.33;63.79;100841.88;4159240;28;20046;-62
2023/03/29 06:52:22;;;;;;;6.68;2.92;;;;;;;8.34;63.24;100846.22;4167800;28;20045;-61
2023/03/29 06:54:25;;;;;;;3.50;2.30;;;;;;;8.24;63.13;100848.53;4155884;28;20057;-61
2023/03/29 06:56:35;;;;;;;5.72;2.80;;;;;;;8.21;62.70;100849.28;4160363;28;20038;-61
2023/03/29 06:58:41;;;;;;;4.72;2.67;;;;;;;8.30;62.77;100857.34;4140316;28;20041;-61
2023/03/29 07:01:20;;;;;;;5.68;2.58;;;;;;;8.26;62.34;100854.59;4154032;28;20049;-61
2023/03/29 07:03:34;;;;;;;6.47;2.88;;;;;;;8.22;62.32;100853.66;4145623;28;20458;-61
2023/03/29 07:05:39;;;;;;;4.55;2.55;;;;;;;8.31;62.72;100851.31;4146417;28;20042;-60
2023/03/29 07:07:55;;;;;;;4.45;2.88;;;;;;;8.47;62.39;100851.78;4158651;28;20518;-60
2023/03/29 07:10:11;;;;;;;7.40;3.13;;;;;;;8.48;62.44;100849.25;4160092;28;20041;-61
2023/03/29 07:12:50;;;;;;;4.55;2.58;;;;;;;8.48;62.43;100844.06;4178191;28;20045;-60
2023/03/29 07:14:53;;;;;;;6.07;2.83;;;;;;;8.56;62.56;100852.06;4161261;28;20033;-61
2023/03/29 07:16:58;;;;;;;8.52;3.13;;;;;;;8.59;62.15;100848.69;4145067;28;20138;-60
2023/03/29 07:19:05;;;;;;;5.20;2.53;;;;;;;8.67;62.38;100844.59;4179043;28;20047;-59
2023/03/29 07:21:34;;;;;;;5.93;2.83;;;;;;;8.77;62.15;100838.81;4159963;28;20116;-60
2023/03/29 07:23:41;;;;;;;5.43;2.78;;;;;;;8.83;62.70;100840.72;4176034;28;20388;-61
2023/03/29 07:25:46;;;;;;;6.95;2.75;;;;;;;8.91;62.49;100837.50;4179837;28;20394;-60
2023/03/29 07:27:49;;;;;;;5.68;2.88;;;;;;;9.00;62.23;100839.47;4173324;28;20123;-60
2023/03/29 07:29:52;;;;;;;6.40;3.03;;;;;;;9.03;61.67;100849.91;4163558;28;20434;-60
2023/03/29 07:31:56;;;;;;;4.80;2.85;;;;;;;9.11;61.24;100849.25;4164584;28;20072;-60
2023/03/29 07:34:26;;;;;;;5.75;3.22;;;;;;;9.12;61.55;100851.00;4157198;28;20482;-64
2023/03/29 07:36:29;;;;;;;7.32;3.00;;;;;;;9.17;61.70;100857.16;4176521;28;20111;-63
2023/03/29 07:38:32;;;;;;;5.57;2.83;;;;;;;9.25;61.52;100853.94;4180851;28;20075;-64
2023/03/29 07:40:44;;;;;;;8.05;2.97;;;;;;;9.26;61.36;100857.44;4180587;28;20040;-64
2023/03/29 07:43:09;;;;;;;4.55;2.58;;;;;;;9.25;61.42;100855.66;4161176;28;20406;-64
2023/03/29 07:45:15;;;;;;;4.70;2.80;;;;;;;9.22;61.50;100850.41;4179528;28;20087;-65
2023/03/29 07:47:31;;;;;;;6.80;2.58;;;;;;;9.14;60.99;100844.13;4165323;28;20041;-64
2023/03/29 07:49:34;;;;;;;4.05;2.13;;;;;;;9.21;61.00;100853.81;4180585;28;20124;-63
2023/03/29 07:51:37;;;;;;;4.85;2.25;;;;;;;9.31;60.74;100850.63;4161575;28;20091;-65
2023/03/29 07:53:45;;;;;;;4.25;2.40;;;;;;;9.37;61.01;100843.00;4160103;28;20048;-66
2023/03/29 07:56:19;;;;;;;6.03;2.95;;;;;;;9.46;61.01;100849.25;4148584;28;20049;-66
2023/03/29 07:58:26;;;;;;;3.55;2.17;;;;;;;9.51;60.63;100853.75;4180216;28;20045;-65
2023/03/29 08:00:29;;;;;;;4.10;2.38;;;;;;;9.59;60.78;100851.31;4180577;28;20052;-65
2023/03/29 08:02:52;;;;;;;4.78;2.20;;;;;;;9.61;60.60;100857.44;4163705;28;20052;-65
2023/03/29 08:04:55;;;;;;;5.85;2.65;;;;;;;9.65;60.41;100853.19;4163967;28;20116;-65
2023/03/29 08:07:18;;;;;;;4.90;2.63;;;;;;;9.70;60.10;100857.66;4180283;28;20499;-65
2023/03/29 08:09:42;;;;;;;4.28;2.47;;;;;;;9.66;59.62;100858.41;4165495;28;20080;-66
2023/03/29 08:11:46;;;;;;;5.00;2.50;;;;;;;9.62;59.57;100861.78;4147704;28;20057;-66
2023/03/29 08:13:55;;;;;;;5.80;2.17;;;;;;;9.65;59.96;100856.69;4153319;28;20037;-68
2023/03/29 08:15:58;;;;;;;5.72;2.22;;;;;;;9.76;59.94;100862.13;4162463;28;20041;-70
2023/03/29 08:18:12;;;;;;;6.25;2.25;;;;;;;9.81;60.58;100852.72;4155742;28;20069;-66
2023/03/29 08:20:16;;;;;;;6.55;3.22;;;;;;;9.92;60.49;100845.19;4176220;28;20068;-65
2023/03/29 08:22:21;;;;;;;4.22;2.75;;;;;;;9.98;60.18;100845.31;4175689;28;20033;-66
2023/03/29 08:24:43;;;;;;;3.88;2.28;;;;;;;10.04;60.46;100853.25;4161340;28;20068;-69
2023/03/29 08:26:47;;;;;;;6.28;2.92;;;;;;;10.05;60.38;100847.22;4178269;28;20526;-69
2023/03/29 08:28:53;;;;;;;6.25;2.78;;;;;;;10.07;60.42;100845.53;4144806;28;20120;-66
2023/03/29 08:30:58;;;;;;;6.40;3.10;;;;;;;10.09;59.99;100843.84;4175288;28;20456;-65
2023/03/29 08:33:01;;;;;;;6.78;3.10;;;;;;;10.07;59.85;100840.31;4174313;28;20045;-67
2023/03/29 08:35:08;;;;;;;5.38;2.40;;;;;;;10.08;60.41;100836.03;4160498;28;20029;-66
2023/03/29 08:37:18;;;;;;;5.75;3.10;;;;;;;10.17;59.97;100836.22;4153845;28;20046;-67
2023/03/29 08:39:23;;;;;;;4.40;2.50;;;;;;;10.21;60.66;100834.59;4156735;28;20053;-64
2023/03/29 08:41:56;;;;;;;6.25;2.75;;;;;;;10.29;60.99;100838.19;4157180;28;20037;-66
2023/03/29 08:44:34;;;;;;;4.20;2.40;;;;;;;10.37;60.53;100836.69;4164815;28;20548;-67
2023/03/29 08:46:47;;;;;;;6.18;2.15;;;;;;;10.41;60.10;100829.81;4162898;28;20033;-66
2023/03/29 08:49:09;;;;;;;4.07;2.47;;;;;;;10.45;59.63;100835.13;4146658;28;20073;-69
2023/03/29 08:51:20;;;;;;;4.25;2.65;;;;;;;10.54;59.90;100829.25;4174731;28;20044;-66
2023/03/29 08:53:29;;;;;;;4.63;2.72;;;;;;;10.51;59.12;100839.56;4173628;28;20511;-67
2023/03/29 08:55:48;;;;;;;5.13;2.30;;;;;;;10.46;59.10;100839.47;4160758;28;20523;-65
2023/03/29 08:58:15;;;;;;;10.80;3.72;;;;;;;10.52;59.60;100841.31;4172088;28;20033;-67
2023/03/29 09:00:24;;;;;;;5.75;2.20;;;;;;;10.52;58.87;100845.66;4176683;28;20442;-64
2023/03/29 09:02:31;;;;;;;7.05;2.50;;;;;;;10.49;59.98;100849.06;4177932;28;20064;-67
2023/03/29 09:04:41;;;;;;;5.25;2.75;;;;;;;10.41;59.84;100848.91;4177136;28;20040;-67
2023/03/29 09:07:03;;;;;;;7.03;3.08;;;;;;;10.43;59.50;100844.59;4159705;28;20052;-66
2023/03/29 09:09:17;;;;;;;7.07;2.90;;;;;;;10.42;59.89;100847.19;4172888;28;20380;-66
2023/03/29 09:11:48;;;;;;;5.13;2.90;;;;;;;10.51;58.73;100847.34;4172659;28;20601;-66
2023/03/29 09:14:03;;;;;;;7.43;3.17;;;;;;;10.46;59.75;100849.88;4166583;28;20088;-65
2023/03/29 09:16:18;;;;;;;7.25;3.42;;;;;;;10.51;60.31;100852.56;4163841;28;20063;-64
2023/03/29 09:18:32;;;;;;;7.82;3.45;;;;;;;10.57;59.72;100850.09;4161830;28;20033;-67
2023/03/29 09:20:43;;;;;;;7.07;3.45;;;;;;;10.60;60.08;100837.16;4158823;28;20056;-65
2023/03/29 09:22:56;;;;;;;8.30;3.65;;;;;;;10.76;59.20;100835.75;4159720;28;20310;-64
2023/03/29 09:25:11;;;;;;;7.40;3.30;;;;;;;10.87;58.62;100835.06;4162341;28;20049;-62
2023/03/29 09:27:23;;;;;;;6.95;3.42;;;;;;;10.93;59.27;100835.19;4161259;28;20049;-65
2023/03/29 09:29:45;;;;;;;5.72;2.90;;;;;;;10.94;58.16;100839.53;4147001;28;20037;-64
2023/03/29 09:31:49;;;;;;;6.07;2.83;;;;;;;11.08;58.55;100838.09;4174852;28;20039;-64
2023/03/29 09:33:58;;;;;;;6.30;3.30;;;;;;;11.25;58.91;100827.09;4179115;28;20037;-63
2023/03/29 09:36:17;;;;;;;5.55;3.25;;;;;;;11.34;58.01;100837.66;4145895;28;20060;-63
2023/03/29 09:38:22;;;;;;;6.43;3.30;;;;;;;11.47;57.56;100823.97;4178838;28;20044;-65
2023/03/29 09:40:31;;;;;;;5.78;3.58;;;;;;;11.61;57.72;100825.94;4162708;28;20038;-65
2023/03/29 09:42:49;;;;;;;5.75;2.72;;;;;;;11.73;58.13;100830.47;4177982;28;20140;-68
2023/03/29 09:44:57;;;;;;;6.55;3.15;;;;;;;11.84;57.31;100834.09;4171338;28;20514;-68
2023/03/29 09:47:17;;;;;;;6.40;2.95;;;;;;;11.86;57.42;100841.09;4158131;28;20029;-64
2023/03/29 09:49:24;;;;;;;5.40;2.53;;;;;;;11.91;57.36;100835.94;4177163;28;20029;-66
2023/03/29 09:51:30;;;;;;;4.82;2.28;;;;;;;11.94;56.76;100832.53;4155651;28;20048;-64
2023/03/29 09:53:33;;;;;;;5.35;3.30;;;;;;;11.97;57.03;100829.97;4175733;28;20037;-67
2023/03/29 09:55:50;;;;;;;3.30;2.13;;;;;;;12.01;57.27;100816.16;4173472;28;20115;-66
2023/03/29 09:58:18;;;;;;;4.53;2.50;;;;;;;12.19;57.42;100821.63;4161476;28;20037;-65
2023/03/29 10:00:26;;;;;;;4.85;2.47;;;;;;;12.40;56.60;100814.94;4161348;28;20139;-65
2023/03/29 10:02:31;;;;;;;4.40;2.28;;;;;;;12.43;56.32;100820.19;4143418;28;20415;-66
2023/03/29 10:04:34;;;;;;;;;;;;;;;12.56;56.48;100814.25;4176717;28;20032;-69
2023/03/29 10:06:42;;;;;;;5.20;2.88;;;;;;;12.62;55.99;100809.97;4162009;28;19921;-69
2023/03/29 10:08:49;;;;;;;4.70;2.53;;;;;;;12.63;56.06;100807.38;4144370;28;20064;-68